createdAt,value
2023-05-18T00:00:11.326Z,102455.45
2023-05-18T00:02:59.407Z,102461.23
2023-05-18T00:05:34.685Z,102464.48
2023-05-18T00:08:03.844Z,102463.02
2023-05-18T00:10:32.068Z,102468.04
2023-05-18T00:13:00.395Z,102469.72
2023-05-18T00:15:28.909Z,102471.76
2023-05-18T00:17:57.334Z,102474.15
2023-05-18T00:20:27.029Z,102475.86
2023-05-18T00:22:55.233Z,102475.58
2023-05-18T00:25:23.651Z,102474.25
2023-05-18T00:27:52.191Z,102472.45
2023-05-18T00:30:20.366Z,102468.71
2023-05-18T00:32:48.506Z,102473.83
2023-05-18T00:35:16.555Z,102475.86
2023-05-18T00:37:44.784Z,102478.56
2023-05-18T00:40:13.171Z,102483.70
2023-05-18T00:42:41.384Z,102485.68
2023-05-18T00:45:11.396Z,102485.06
2023-05-18T00:47:39.578Z,102477.84
2023-05-18T00:50:08.619Z,102475.33
2023-05-18T00:52:37.001Z,102470.01
2023-05-18T00:55:06.307Z,102473.84
2023-05-18T00:57:34.570Z,102479.24
2023-05-18T01:00:03.484Z,102480.81
2023-05-18T01:02:32.005Z,102490.41
2023-05-18T01:05:01.040Z,102495.13
2023-05-18T01:07:33.512Z,102501.87
2023-05-18T01:10:01.731Z,102505.27
2023-05-18T01:12:46.220Z,102511.84
2023-05-18T01:15:19.721Z,102512.08
2023-05-18T01:18:18.529Z,102511.50
2023-05-18T01:20:57.766Z,102514.99
2023-05-18T01:23:45.064Z,102518.02
2023-05-18T01:26:37.980Z,102517.05
2023-05-18T01:29:10.416Z,102512.19
2023-05-18T01:31:38.673Z,102514.54
2023-05-18T01:34:06.858Z,102514.19
2023-05-18T01:36:35.135Z,102513.67
2023-05-18T01:39:03.939Z,102511.95
2023-05-18T01:41:37.422Z,102513.48
2023-05-18T01:44:19.786Z,102519.04
2023-05-18T01:47:05.194Z,102517.77
2023-05-18T01:49:48.623Z,102518.80
2023-05-18T01:52:23.162Z,102522.79
2023-05-18T01:54:56.579Z,102522.10
2023-05-18T01:57:27.998Z,102522.61
2023-05-18T02:00:00.363Z,102525.55
2023-05-18T02:02:28.941Z,102525.17
2023-05-18T02:04:57.440Z,102527.41
2023-05-18T02:07:25.863Z,102532.09
2023-05-18T02:09:54.541Z,102532.19
2023-05-18T02:12:23.690Z,102527.71
2023-05-18T02:14:51.752Z,102528.97
2023-05-18T02:17:19.828Z,102531.81
2023-05-18T02:19:47.887Z,102532.43
2023-05-18T02:22:16.688Z,102531.38
2023-05-18T02:24:46.488Z,102533.66
2023-05-18T02:27:16.098Z,102534.11
2023-05-18T02:29:44.183Z,102540.75
2023-05-18T02:32:12.281Z,102542.45
2023-05-18T02:34:42.532Z,102545.55
2023-05-18T02:37:10.831Z,102547.88
2023-05-18T02:39:39.118Z,102545.19
2023-05-18T02:42:07.807Z,102547.19
2023-05-18T02:44:35.974Z,102547.66
2023-05-18T02:47:04.345Z,102549.59
2023-05-18T02:49:33.650Z,102550.09
2023-05-18T02:52:01.716Z,102552.16
2023-05-18T02:54:30.091Z,102550.44
2023-05-18T02:56:59.193Z,102549.20
2023-05-18T02:59:35.259Z,102552.59
2023-05-18T03:02:03.440Z,102554.30
2023-05-18T03:04:32.310Z,102553.73
2023-05-18T03:07:03.005Z,102557.39
2023-05-18T03:09:31.247Z,102560.80
2023-05-18T03:11:59.554Z,102562.10
2023-05-18T03:14:27.779Z,102561.89
2023-05-18T03:16:58.131Z,102561.52
2023-05-18T03:19:27.697Z,102561.55
2023-05-18T03:21:55.765Z,102563.63
2023-05-18T03:24:26.804Z,102566.36
2023-05-18T03:26:55.604Z,102566.10
2023-05-18T03:29:24.292Z,102568.11
2023-05-18T03:31:53.525Z,102570.84
2023-05-18T03:34:21.755Z,102576.36
2023-05-18T03:36:51.972Z,102576.50
2023-05-18T03:39:20.056Z,102576.83
2023-05-18T03:41:48.117Z,102578.89
2023-05-18T03:44:16.434Z,102579.74
2023-05-18T03:46:44.648Z,102587.26
2023-05-18T03:49:12.688Z,102588.20
2023-05-18T03:51:42.980Z,102590.68
2023-05-18T03:54:11.343Z,102592.69
2023-05-18T03:56:39.668Z,102594.19
2023-05-18T03:59:08.309Z,102600.91
2023-05-18T04:01:36.605Z,102601.33
2023-05-18T04:04:04.822Z,102603.33
2023-05-18T04:06:35.576Z,102606.41
2023-05-18T04:09:05.030Z,102613.69
2023-05-18T04:11:33.304Z,102614.87
2023-05-18T04:14:01.842Z,102616.63
2023-05-18T04:16:30.047Z,102621.23
2023-05-18T04:18:58.340Z,102623.36
2023-05-18T04:21:26.869Z,102625.04
2023-05-18T04:23:55.245Z,102627.80
2023-05-18T04:26:23.314Z,102630.91
2023-05-18T04:28:52.747Z,102631.98
2023-05-18T04:31:22.151Z,102635.63
2023-05-18T04:33:51.458Z,102638.59
2023-05-18T04:36:21.325Z,102640.55
2023-05-18T04:38:51.140Z,102643.99
2023-05-18T04:41:22.956Z,102645.86
2023-05-18T04:43:52.567Z,102642.80
2023-05-18T04:46:22.608Z,102640.22
2023-05-18T04:48:51.121Z,102640.86
2023-05-18T04:51:22.557Z,102643.75
2023-05-18T04:53:51.406Z,102648.31
2023-05-18T04:56:22.975Z,102648.69
2023-05-18T04:58:51.815Z,102647.09
2023-05-18T05:01:20.105Z,102645.48
2023-05-18T05:03:49.831Z,102647.83
2023-05-18T05:06:18.104Z,102649.94
2023-05-18T05:08:46.517Z,102650.73
2023-05-18T05:11:14.667Z,102652.20
2023-05-18T05:13:42.871Z,102651.91
2023-05-18T05:16:11.826Z,102650.49
2023-05-18T05:18:40.093Z,102652.15
2023-05-18T05:21:09.809Z,102651.67
2023-05-18T05:23:37.920Z,102653.16
2023-05-18T05:26:06.229Z,102657.07
2023-05-18T05:28:34.353Z,102655.63
2023-05-18T05:31:03.106Z,102652.22
2023-05-18T05:33:32.025Z,102649.34
2023-05-18T05:36:00.139Z,102644.60
2023-05-18T05:38:28.318Z,102646.74
2023-05-18T05:40:56.758Z,102646.47
2023-05-18T05:43:24.840Z,102647.43
2023-05-18T05:45:53.104Z,102652.81
2023-05-18T05:48:21.687Z,102652.86
2023-05-18T05:50:49.886Z,102654.19
2023-05-18T05:53:19.940Z,102654.83
2023-05-18T05:55:49.264Z,102652.39
2023-05-18T05:58:18.881Z,102649.35
2023-05-18T06:00:59.382Z,102649.77
2023-05-18T06:03:29.665Z,102656.13
2023-05-18T06:06:00.800Z,102662.00
2023-05-18T06:08:30.107Z,102660.86
2023-05-18T06:10:58.494Z,102667.99
2023-05-18T06:13:26.483Z,102664.89
2023-05-18T06:15:58.824Z,102668.80
2023-05-18T06:18:27.121Z,102668.52
2023-05-18T06:20:59.323Z,102669.58
2023-05-18T06:23:27.764Z,102665.95
2023-05-18T06:26:05.033Z,102669.52
2023-05-18T06:28:52.084Z,102667.45
2023-05-18T06:31:30.326Z,102669.27
2023-05-18T06:34:10.011Z,102668.51
2023-05-18T06:36:39.083Z,102669.28
2023-05-18T06:39:07.284Z,102666.91
2023-05-18T06:41:35.444Z,102674.01
2023-05-18T06:44:03.735Z,102676.09
2023-05-18T06:46:37.546Z,102674.95
2023-05-18T06:49:22.284Z,102681.54
2023-05-18T06:51:50.782Z,102679.31
2023-05-18T06:54:19.046Z,102683.30
2023-05-18T06:56:47.721Z,102683.19
2023-05-18T06:59:17.311Z,102686.83
2023-05-18T07:01:46.074Z,102684.09
2023-05-18T07:04:16.587Z,102679.88
2023-05-18T07:06:45.143Z,102682.73
2023-05-18T07:09:13.197Z,102692.30
2023-05-18T07:11:41.368Z,102697.22
2023-05-18T07:14:09.442Z,102697.86
2023-05-18T07:16:37.806Z,102698.10
2023-05-18T07:19:06.340Z,102698.23
2023-05-18T07:21:34.875Z,102704.79
2023-05-18T07:24:02.951Z,102706.79
2023-05-18T07:26:31.132Z,102708.75
2023-05-18T07:28:59.233Z,102711.95
2023-05-18T07:31:28.197Z,102708.44
2023-05-18T07:33:56.368Z,102711.27
2023-05-18T07:36:25.767Z,102711.63
2023-05-18T07:38:55.364Z,102712.79
2023-05-18T07:41:23.445Z,102712.52
2023-05-18T07:43:52.471Z,102716.30
2023-05-18T07:46:20.826Z,102719.38
2023-05-18T07:48:48.986Z,102714.13
2023-05-18T07:51:17.463Z,102717.85
2023-05-18T07:53:46.855Z,102718.55
2023-05-18T07:56:15.037Z,102724.96
2023-05-18T07:58:43.330Z,102730.11
2023-05-18T08:01:11.685Z,102731.91
2023-05-18T08:03:39.814Z,102734.40
2023-05-18T08:06:08.145Z,102737.97
2023-05-18T08:08:38.164Z,102736.58
2023-05-18T08:11:06.423Z,102739.40
2023-05-18T08:13:34.496Z,102742.59
2023-05-18T08:16:11.260Z,102739.06
2023-05-18T08:18:41.411Z,102742.77
2023-05-18T08:21:10.307Z,102745.58
2023-05-18T08:23:39.215Z,102744.35
2023-05-18T08:26:10.147Z,102741.69
2023-05-18T08:28:39.958Z,102742.56
2023-05-18T08:31:08.346Z,102742.38
2023-05-18T08:33:36.305Z,102741.48
2023-05-18T08:36:04.794Z,102744.83
2023-05-18T08:38:33.123Z,102746.08
2023-05-18T08:41:24.053Z,102750.66
2023-05-18T08:44:03.154Z,102748.93
2023-05-18T08:46:36.049Z,102746.81
2023-05-18T08:49:06.164Z,102746.98
2023-05-18T08:51:36.369Z,102751.91
2023-05-18T08:54:06.502Z,102749.05
2023-05-18T08:56:35.883Z,102749.16
2023-05-18T08:59:08.614Z,102747.00
2023-05-18T09:01:37.786Z,102746.39
2023-05-18T09:04:06.402Z,102741.15
2023-05-18T09:06:36.019Z,102731.90
2023-05-18T09:09:06.798Z,102737.70
2023-05-18T09:11:35.903Z,102737.66
2023-05-18T09:14:04.170Z,102738.11
2023-05-18T09:16:34.094Z,102742.83
2023-05-18T09:19:02.436Z,102742.42
2023-05-18T09:21:32.812Z,102741.42
2023-05-18T09:24:01.391Z,102739.91
2023-05-18T09:26:29.696Z,102735.80
2023-05-18T09:28:59.724Z,102740.67
2023-05-18T09:31:31.004Z,102743.54
2023-05-18T09:34:01.407Z,102743.66
2023-05-18T09:36:34.866Z,102743.23
2023-05-18T09:39:10.203Z,102744.85
2023-05-18T09:41:41.709Z,102739.84
2023-05-18T09:44:10.329Z,102751.46
2023-05-18T09:46:41.545Z,102748.23
2023-05-18T09:49:10.048Z,102750.84
2023-05-18T09:51:39.619Z,102753.69
2023-05-18T09:54:10.557Z,102755.10
2023-05-18T09:56:39.406Z,102752.54
2023-05-18T09:59:11.393Z,102749.88
2023-05-18T10:02:03.032Z,102750.31
2023-05-18T10:04:39.711Z,102746.15
2023-05-18T10:07:17.917Z,102752.55
2023-05-18T10:09:46.636Z,102756.50
2023-05-18T10:12:16.942Z,102759.82
2023-05-18T10:14:46.529Z,102757.53
2023-05-18T10:17:17.195Z,102758.55
2023-05-18T10:19:47.147Z,102754.80
2023-05-18T10:22:17.921Z,102750.67
2023-05-18T10:24:51.004Z,102749.14
2023-05-18T10:27:26.930Z,102749.95
2023-05-18T10:29:58.927Z,102754.34
2023-05-18T10:32:29.893Z,102751.98
2023-05-18T10:35:00.570Z,102749.20
2023-05-18T10:37:31.988Z,102749.61
2023-05-18T10:40:01.954Z,102747.89
2023-05-18T10:42:33.303Z,102753.22
2023-05-18T10:45:02.916Z,102756.23
2023-05-18T10:47:32.637Z,102754.66
2023-05-18T10:50:01.914Z,102750.06
2023-05-18T10:52:32.349Z,102748.10
2023-05-18T10:55:01.336Z,102743.15
2023-05-18T10:57:37.078Z,102749.14
2023-05-18T11:00:09.633Z,102751.63
2023-05-18T11:02:43.144Z,102748.48
2023-05-18T11:05:12.751Z,102751.13
2023-05-18T11:07:45.063Z,102752.37
2023-05-18T11:10:14.269Z,102743.20
2023-05-18T11:12:43.414Z,102755.35
2023-05-18T11:15:11.846Z,102753.07
2023-05-18T11:17:40.137Z,102753.27
2023-05-18T11:20:09.005Z,102755.77
2023-05-18T11:22:43.483Z,102756.83
2023-05-18T11:25:26.369Z,102758.77
2023-05-18T11:28:05.779Z,102751.39
2023-05-18T11:30:34.133Z,102750.70
2023-05-18T11:33:17.539Z,102752.45
2023-05-18T11:35:56.162Z,102751.21
2023-05-18T11:38:46.107Z,102757.91
2023-05-18T11:41:36.664Z,102760.39
2023-05-18T11:44:17.161Z,102760.40
2023-05-18T11:46:52.747Z,102761.98
2023-05-18T11:49:24.509Z,102764.27
2023-05-18T11:52:05.008Z,102754.76
2023-05-18T11:54:41.973Z,102759.87
2023-05-18T11:57:11.863Z,102761.80
2023-05-18T11:59:42.464Z,102768.33
2023-05-18T12:02:12.850Z,102760.75
2023-05-18T12:04:48.061Z,102766.56
2023-05-18T12:07:19.088Z,102766.91
2023-05-18T12:09:48.079Z,102764.09
2023-05-18T12:12:20.843Z,102773.08
2023-05-18T12:14:55.359Z,102771.14
2023-05-18T12:17:24.784Z,102768.50
2023-05-18T12:19:53.069Z,102766.21
2023-05-18T12:22:21.638Z,102768.67
2023-05-18T12:24:51.696Z,102765.85
2023-05-18T12:27:23.039Z,102768.33
2023-05-18T12:29:51.381Z,102769.02
2023-05-18T12:32:19.761Z,102770.24
2023-05-18T12:34:47.934Z,102772.54
2023-05-18T12:37:16.453Z,102777.27
2023-05-18T12:39:44.576Z,102774.27
2023-05-18T12:42:15.448Z,102768.63
2023-05-18T12:44:45.654Z,102771.80
2023-05-18T12:47:14.950Z,102775.33
2023-05-18T12:49:48.689Z,102776.38
2023-05-18T12:52:16.916Z,102774.11
2023-05-18T12:54:55.805Z,102777.98
2023-05-18T12:57:27.861Z,102781.67
2023-05-18T12:59:57.253Z,102779.20
2023-05-18T13:02:32.605Z,102780.09
2023-05-18T13:05:09.732Z,102777.45
2023-05-18T13:07:40.996Z,102779.05
2023-05-18T13:10:15.796Z,102784.67
2023-05-18T13:12:49.037Z,102778.69
2023-05-18T13:15:22.701Z,102776.91
2023-05-18T13:17:53.875Z,102780.23
2023-05-18T13:20:22.071Z,102779.52
2023-05-18T13:22:51.664Z,102779.53
2023-05-18T13:25:19.896Z,102776.02
2023-05-18T13:27:49.812Z,102772.33
2023-05-18T13:30:18.473Z,102776.21
2023-05-18T13:32:46.894Z,102774.80
2023-05-18T13:35:15.170Z,102773.02
2023-05-18T13:37:43.633Z,102768.46
2023-05-18T13:40:13.606Z,102771.29
2023-05-18T13:42:42.245Z,102768.64
2023-05-18T13:45:13.765Z,102774.62
2023-05-18T13:47:45.886Z,102770.04
2023-05-18T13:50:14.336Z,102766.15
2023-05-18T13:52:42.603Z,102768.62
2023-05-18T13:55:12.553Z,102762.82
2023-05-18T13:57:40.895Z,102762.81
2023-05-18T14:00:17.558Z,102765.10
2023-05-18T14:02:46.828Z,102762.81
2023-05-18T14:05:15.415Z,102764.92
2023-05-18T14:07:44.607Z,102770.17
2023-05-18T14:10:14.186Z,102771.70
2023-05-18T14:12:44.885Z,102765.52
2023-05-18T14:15:14.192Z,102768.33
2023-05-18T14:17:43.885Z,102768.19
2023-05-18T14:20:13.053Z,102760.33
2023-05-18T14:22:41.498Z,102765.61
2023-05-18T14:25:09.966Z,102767.56
2023-05-18T14:27:38.222Z,102777.04
2023-05-18T14:30:07.275Z,102775.92
2023-05-18T14:32:35.454Z,102775.89
2023-05-18T14:35:03.852Z,102773.24
2023-05-18T14:37:33.183Z,102778.85
2023-05-18T14:40:01.360Z,102774.98
2023-05-18T14:42:29.910Z,102784.10
2023-05-18T14:44:58.698Z,102780.55
2023-05-18T14:47:26.816Z,102776.30
2023-05-18T14:49:55.312Z,102781.20
2023-05-18T14:52:23.535Z,102778.92
2023-05-18T14:54:51.715Z,102781.91
2023-05-18T14:57:20.070Z,102783.14
2023-05-18T14:59:48.256Z,102780.34
2023-05-18T15:02:16.393Z,102780.34
2023-05-18T15:04:44.508Z,102779.45
2023-05-18T15:07:12.668Z,102775.95
2023-05-18T15:09:40.949Z,102776.30
2023-05-18T15:12:09.112Z,102773.31
2023-05-18T15:14:38.304Z,102775.77
2023-05-18T15:17:07.808Z,102773.81
2023-05-18T15:19:36.294Z,102772.73
2023-05-18T15:22:04.832Z,102775.52
2023-05-18T15:24:32.942Z,102773.73
2023-05-18T15:27:03.724Z,102774.06
2023-05-18T15:29:31.952Z,102771.06
2023-05-18T15:32:00.225Z,102771.40
2023-05-18T15:34:28.398Z,102775.25
2023-05-18T15:36:56.493Z,102777.16
2023-05-18T15:39:24.748Z,102775.02
2023-05-18T15:41:52.920Z,102775.17
2023-05-18T15:44:20.992Z,102772.17
2023-05-18T15:46:49.303Z,102774.48
2023-05-18T15:49:18.811Z,102773.77
2023-05-18T15:51:46.847Z,102777.27
2023-05-18T15:54:15.016Z,102777.56
2023-05-18T15:56:43.321Z,102783.48
2023-05-18T15:59:11.397Z,102781.49
2023-05-18T16:01:39.592Z,102782.86
2023-05-18T16:04:07.700Z,102782.13
2023-05-18T16:06:36.306Z,102781.20
2023-05-18T16:09:04.559Z,102780.30
2023-05-18T16:11:32.844Z,102780.98
2023-05-18T16:14:01.228Z,102774.98
2023-05-18T16:16:29.464Z,102786.08
2023-05-18T16:18:58.037Z,102785.40
2023-05-18T16:21:26.777Z,102782.41
2023-05-18T16:23:54.931Z,102783.42
2023-05-18T16:26:22.931Z,102782.73
2023-05-18T16:28:51.177Z,102784.84
2023-05-18T16:31:19.277Z,102791.17
2023-05-18T16:33:47.523Z,102787.96
2023-05-18T16:36:16.002Z,102792.15
2023-05-18T16:38:44.170Z,102789.64
2023-05-18T16:41:12.903Z,102793.80
2023-05-18T16:43:41.034Z,102786.89
2023-05-18T16:46:10.049Z,102792.64
2023-05-18T16:48:38.212Z,102788.58
2023-05-18T16:51:07.059Z,102786.48
2023-05-18T16:53:36.421Z,102790.52
2023-05-18T16:56:04.996Z,102794.36
2023-05-18T16:58:33.441Z,102796.45
2023-05-18T17:01:01.997Z,102799.05
2023-05-18T17:03:30.452Z,102796.73
2023-05-18T17:05:58.515Z,102800.07
2023-05-18T17:08:26.649Z,102798.80
2023-05-18T17:10:54.720Z,102799.83
2023-05-18T17:13:22.896Z,102804.70
2023-05-18T17:15:50.995Z,102803.81
2023-05-18T17:18:19.143Z,102802.72
2023-05-18T17:20:47.848Z,102802.00
2023-05-18T17:23:18.790Z,102804.62
2023-05-18T17:25:48.382Z,102801.11
2023-05-18T17:28:19.087Z,102803.21
2023-05-18T17:30:47.163Z,102803.86
2023-05-18T17:33:15.355Z,102809.80
2023-05-18T17:35:43.504Z,102806.09
2023-05-18T17:38:11.797Z,102811.85
2023-05-18T17:40:39.847Z,102813.39
2023-05-18T17:43:08.033Z,102812.67
2023-05-18T17:45:36.099Z,102811.61
2023-05-18T17:48:04.636Z,102810.35
2023-05-18T17:50:33.069Z,102816.82
2023-05-18T17:53:01.546Z,102817.29
2023-05-18T17:55:29.727Z,102823.61
2023-05-18T17:57:59.827Z,102824.80
2023-05-18T18:00:28.220Z,102829.80
2023-05-18T18:02:56.612Z,102829.58
2023-05-18T18:05:24.960Z,102830.41
2023-05-18T18:07:54.370Z,102829.32
2023-05-18T18:10:22.488Z,102830.50
2023-05-18T18:12:50.724Z,102835.22
2023-05-18T18:15:18.949Z,102840.45
2023-05-18T18:17:47.165Z,102837.97
2023-05-18T18:20:15.338Z,102838.13
2023-05-18T18:22:43.515Z,102839.86
2023-05-18T18:25:11.677Z,102842.42
2023-05-18T18:27:40.057Z,102840.10
2023-05-18T18:30:08.951Z,102849.91
2023-05-18T18:32:37.023Z,102851.10
2023-05-18T18:35:05.703Z,102843.52
2023-05-18T18:37:33.723Z,102848.42
2023-05-18T18:40:01.809Z,102842.95
2023-05-18T18:42:29.911Z,102848.33
2023-05-18T18:44:58.085Z,102848.11
2023-05-18T18:47:26.633Z,102850.52
2023-05-18T18:49:54.681Z,102852.26
2023-05-18T18:52:22.775Z,102848.35
2023-05-18T18:54:50.804Z,102850.05
2023-05-18T18:57:18.974Z,102850.71
2023-05-18T18:59:47.125Z,102849.79
2023-05-18T19:02:15.723Z,102853.95
2023-05-18T19:04:43.832Z,102849.48
2023-05-18T19:07:12.157Z,102848.35
2023-05-18T19:09:40.478Z,102847.77
2023-05-18T19:12:08.811Z,102850.71
2023-05-18T19:14:37.081Z,102846.46
2023-05-18T19:17:05.152Z,102850.63
2023-05-18T19:19:33.678Z,102851.11
2023-05-18T19:22:01.749Z,102851.76
2023-05-18T19:24:29.816Z,102852.73
2023-05-18T19:26:58.047Z,102853.88
2023-05-18T19:29:26.430Z,102852.45
2023-05-18T19:31:56.200Z,102851.17
2023-05-18T19:34:24.521Z,102854.64
2023-05-18T19:36:52.928Z,102849.99
2023-05-18T19:39:21.165Z,102853.24
2023-05-18T19:41:49.382Z,102852.98
2023-05-18T19:44:17.444Z,102849.80
2023-05-18T19:46:45.571Z,102848.68
2023-05-18T19:49:13.748Z,102854.94
2023-05-18T19:51:42.016Z,102850.54
2023-05-18T19:54:10.090Z,102856.81
2023-05-18T19:56:38.264Z,102853.81
2023-05-18T19:59:06.650Z,102851.16
2023-05-18T20:01:34.859Z,102855.29
2023-05-18T20:04:03.570Z,102855.59
2023-05-18T20:06:32.542Z,102857.80
2023-05-18T20:09:01.490Z,102860.39
2023-05-18T20:11:29.598Z,102861.74
2023-05-18T20:13:57.993Z,102868.51
2023-05-18T20:16:29.242Z,102867.93
2023-05-18T20:18:58.096Z,102866.12
2023-05-18T20:21:26.368Z,102869.57
2023-05-18T20:23:54.563Z,102871.83
2023-05-18T20:26:23.587Z,102876.86
2023-05-18T20:28:51.890Z,102874.23
2023-05-18T20:31:20.302Z,102878.09
2023-05-18T20:33:48.537Z,102883.16
2023-05-18T20:36:16.618Z,102879.12
2023-05-18T20:38:44.777Z,102881.89
2023-05-18T20:41:12.852Z,102885.17
2023-05-18T20:43:40.976Z,102888.27
2023-05-18T20:46:09.966Z,102890.16
2023-05-18T20:48:38.949Z,102897.06
2023-05-18T20:51:08.856Z,102896.30
2023-05-18T20:53:36.936Z,102899.58
2023-05-18T20:56:05.545Z,102901.27
2023-05-18T20:58:34.459Z,102902.13
2023-05-18T21:01:07.369Z,102904.16
2023-05-18T21:03:36.114Z,102904.55
2023-05-18T21:06:05.289Z,102904.36
2023-05-18T21:08:33.339Z,102909.33
2023-05-18T21:11:01.412Z,102915.88
2023-05-18T21:13:29.643Z,102911.16
2023-05-18T21:15:59.425Z,102919.87
2023-05-18T21:18:28.146Z,102917.20
2023-05-18T21:20:57.644Z,102917.02
2023-05-18T21:23:25.817Z,102916.84
2023-05-18T21:25:54.139Z,102917.52
2023-05-18T21:28:25.072Z,102922.04
2023-05-18T21:30:54.269Z,102918.52
2023-05-18T21:33:22.504Z,102919.94
2023-05-18T21:35:50.686Z,102921.84
2023-05-18T21:38:18.877Z,102920.50
2023-05-18T21:40:47.240Z,102922.23
2023-05-18T21:43:15.503Z,102917.13
2023-05-18T21:45:43.618Z,102920.04
2023-05-18T21:48:11.747Z,102919.98
2023-05-18T21:50:39.933Z,102923.76
2023-05-18T21:53:07.991Z,102924.03
2023-05-18T21:55:36.165Z,102920.83
2023-05-18T21:58:04.336Z,102924.30
2023-05-18T22:00:32.681Z,102930.14
2023-05-18T22:03:01.336Z,102930.46
2023-05-18T22:05:29.410Z,102922.73
2023-05-18T22:07:59.281Z,102920.91
2023-05-18T22:10:27.685Z,102917.48
2023-05-18T22:12:56.145Z,102913.29
2023-05-18T22:15:24.519Z,102913.14
2023-05-18T22:17:54.667Z,102918.48
2023-05-18T22:20:24.080Z,102920.24
2023-05-18T22:22:52.110Z,102916.00
2023-05-18T22:25:20.307Z,102924.56
2023-05-18T22:27:48.501Z,102925.56
2023-05-18T22:30:17.752Z,102919.10
2023-05-18T22:32:47.530Z,102918.41
2023-05-18T22:35:15.782Z,102912.96
2023-05-18T22:37:43.798Z,102916.10
2023-05-18T22:40:12.309Z,102916.06
2023-05-18T22:42:41.095Z,102914.14
2023-05-18T22:45:09.909Z,102910.94
2023-05-18T22:47:39.584Z,102915.68
2023-05-18T22:50:08.517Z,102913.54
2023-05-18T22:52:37.036Z,102914.94
2023-05-18T22:55:09.096Z,102905.97
2023-05-18T22:57:37.179Z,102912.98
2023-05-18T23:00:06.481Z,102909.70
2023-05-18T23:02:35.185Z,102910.06
2023-05-18T23:05:05.086Z,102912.36
2023-05-18T23:07:36.461Z,102912.55
2023-05-18T23:10:06.370Z,102911.35
2023-05-18T23:12:34.607Z,102912.75
2023-05-18T23:15:04.515Z,102909.31
2023-05-18T23:17:33.573Z,102905.89
2023-05-18T23:20:04.003Z,102907.50
2023-05-18T23:22:32.115Z,102908.42
2023-05-18T23:25:00.484Z,102905.14
2023-05-18T23:27:28.557Z,102910.59
2023-05-18T23:29:56.834Z,102907.27
2023-05-18T23:32:25.649Z,102906.92
2023-05-18T23:34:54.310Z,102906.08
2023-05-18T23:37:24.837Z,102907.54
2023-05-18T23:39:53.420Z,102907.59
2023-05-18T23:42:24.362Z,102908.65
2023-05-18T23:44:53.243Z,102911.08
2023-05-18T23:47:22.276Z,102914.56
2023-05-18T23:49:51.073Z,102916.68
2023-05-18T23:52:23.161Z,102914.07
2023-05-18T23:54:53.717Z,102915.48
2023-05-18T23:57:25.391Z,102910.27
2023-05-18T23:59:53.645Z,102912.52
